Time;durP1;ratioP1;P1;durP2;ratioP2;P2;SDS_P1;SDS_P2;PMS_P1;PMS_P2;Temp;Humidity;BMP_temperature;BMP_pressure;BME280_temperature;BME280_humidity;BME280_pressure;Samples;Min_cycle;Max_cycle;Signal;HPM_P1;HPM_P2
2022/10/13 00:02:24;;;;;;;;;;;;;;;21.13;68.06;101698.25;7402456;19;1701;-40
2022/10/13 00:05:20;;;;;;;;;;;;;;;21.12;67.96;101699.25;7404399;19;1579;-39
2022/10/13 00:08:00;;;;;;;;;;;;;;;21.12;67.88;101691.19;7402883;19;1560;-39
2022/10/13 00:10:42;;;;;;;;;;;;;;;21.11;67.88;101706.47;7404277;19;2042;-39
2022/10/13 00:13:20;;;;;;;;;;;;;;;21.09;68.07;101689.59;7405052;19;1648;-39
2022/10/13 00:16:01;;;;;;;;;;;;;;;21.11;68.09;101686.78;7405122;19;1542;-39
2022/10/13 00:18:31;;;;;;;;;;;;;;;21.10;67.93;101679.69;7404581;19;1858;-40
2022/10/13 00:20:59;;;;;;;;;;;;;;;21.09;67.79;101688.72;7403732;19;2038;-39
2022/10/13 00:23:35;;;;;;;;;;;;;;;21.10;67.96;101690.44;7403545;19;1877;-39
2022/10/13 00:26:14;;;;;;;;;;;;;;;21.09;67.91;101686.91;7403638;19;1666;-39
2022/10/13 00:28:50;;;;;;;;;;;;;;;21.11;67.88;101689.47;7404259;19;1774;-39
2022/10/13 00:31:23;;;;;;;;;;;;;;;21.09;67.92;101683.34;7403516;19;1567;-39
2022/10/13 00:34:01;;;;;;;;;;;;;;;21.09;67.78;101700.38;7403433;19;1472;-39
2022/10/13 00:36:33;;;;;;;;;;;;;;;21.12;67.67;101692.03;7404584;19;1368;-40
2022/10/13 00:39:18;;;;;;;;;;;;;;;21.12;67.66;101692.03;7400377;19;1927;-39
2022/10/13 00:41:54;;;;;;;;;;;;;;;21.11;67.81;101692.16;7402219;19;1959;-39
2022/10/13 00:44:40;;;;;;;;;;;;;;;21.10;67.75;101695.84;7401483;19;1855;-39
2022/10/13 00:47:14;;;;;;;;;;;;;;;21.11;67.68;101706.47;7402211;19;1700;-39
2022/10/13 00:49:44;;;;;;;;;;;;;;;21.07;67.76;101691.56;7400274;19;1844;-40
2022/10/13 00:52:18;;;;;;;;;;;;;;;21.07;67.67;101705.03;7404086;19;1040;-39
2022/10/13 00:54:58;;;;;;;;;;;;;;;21.09;67.76;101699.50;7402700;19;1774;-40
2022/10/13 00:57:33;;;;;;;;;;;;;;;21.05;67.68;101691.69;7401997;19;1735;-39
2022/10/13 01:00:06;;;;;;;;;;;;;;;21.15;67.63;101701.66;7400588;19;1853;-39
2022/10/13 01:02:40;;;;;;;;;;;;;;;21.49;66.55;101693.50;7400095;19;1937;-39
2022/10/13 01:05:11;;;;;;;;;;;;;;;22.04;65.04;101694.16;7403064;19;1911;-39
2022/10/13 01:07:43;;;;;;;;;;;;;;;22.46;63.78;101686.03;7403582;19;987;-39
2022/10/13 01:10:22;;;;;;;;;;;;;;;22.76;63.08;101677.06;7402272;19;1949;-40
2022/10/13 01:13:02;;;;;;;;;;;;;;;22.47;63.97;101685.06;7402289;19;1735;-40
2022/10/13 01:15:42;;;;;;;;;;;;;;;21.99;65.07;101702.66;7401878;19;1458;-39
2022/10/13 01:18:20;;;;;;;;;;;;;;;21.89;65.42;101693.66;7401973;19;1836;-39
2022/10/13 01:21:10;;;;;;;;;;;;;;;22.20;64.58;101693.69;7400884;19;1953;-40
2022/10/13 01:23:58;;;;;;;;;;;;;;;22.53;63.67;101695.28;7401049;19;1660;-39
2022/10/13 01:26:47;;;;;;;;;;;;;;;22.27;64.34;101707.53;7400109;19;1802;-39
2022/10/13 01:29:38;;;;;;;;;;;;;;;21.89;65.82;101714.38;7403011;19;1915;-39
2022/10/13 01:32:17;;;;;;;;;;;;;;;22.14;64.95;101697.75;7401220;19;1669;-39
2022/10/13 01:35:07;;;;;;;;;;;;;;;22.44;63.88;101685.31;7399384;19;2062;-39
2022/10/13 01:37:48;;;;;;;;;;;;;;;22.46;63.98;101696.81;7401577;19;1122;-39
2022/10/13 01:40:23;;;;;;;;;;;;;;;22.06;65.04;101713.75;7398335;19;1919;-40
2022/10/13 01:43:13;;;;;;;;;;;;;;;21.97;65.28;101706.47;7401470;19;1654;-39
2022/10/13 01:45:47;;;;;;;;;;;;;;;22.23;64.52;101696.13;7400858;19;1706;-40
2022/10/13 01:48:24;;;;;;;;;;;;;;;22.49;63.80;101691.16;7400649;19;1749;-40
2022/10/13 01:53:58;;;;;;;;;;;;;;;21.96;65.26;101694.81;7396366;19;2563;-39
2022/10/13 01:56:37;;;;;;;;;;;;;;;;;;;;;
2022/10/13 01:59:10;;;;;;;;;;;;;;;22.54;63.67;101693.44;7399020;19;1859;-39
2022/10/13 02:01:47;;;;;;;;;;;;;;;22.33;64.52;101682.72;7393729;19;3351;-58
2022/10/13 02:04:25;;;;;;;;;;;;;;;21.97;64.98;101693.00;7402483;19;1542;-59
2022/10/13 02:06:54;;;;;;;;;;;;;;;22.15;64.52;101694.09;7403314;19;1347;-59
2022/10/13 02:09:28;;;;;;;;;;;;;;;22.53;63.32;101681.81;7403284;19;1348;-59
2022/10/13 02:12:00;;;;;;;;;;;;;;;22.76;62.80;101687.84;7403123;19;1572;-59
2022/10/13 02:14:30;;;;;;;;;;;;;;;22.41;64.31;101677.50;7402432;19;1545;-59
2022/10/13 02:17:01;;;;;;;;;;;;;;;22.14;65.14;101686.16;7403019;19;1365;-59
2022/10/13 02:19:34;;;;;;;;;;;;;;;22.14;65.06;101676.22;7403380;19;1840;-59
2022/10/13 02:22:03;;;;;;;;;;;;;;;22.57;64.11;101683.25;7402238;19;1759;-59
2022/10/13 02:24:31;;;;;;;;;;;;;;;22.66;63.64;101694.19;7402974;19;1432;-59
2022/10/13 02:27:00;;;;;;;;;;;;;;;22.33;64.74;101680.88;7409977;19;1554;-59
2022/10/13 02:29:28;;;;;;;;;;;;;;;22.16;65.22;101685.03;7409425;19;1296;-59
2022/10/13 02:31:56;;;;;;;;;;;;;;;22.30;64.56;101675.75;7409183;19;1385;-58
2022/10/13 02:34:25;;;;;;;;;;;;;;;22.59;63.93;101673.16;7410358;19;1509;-59
2022/10/13 02:36:56;;;;;;;;;;;;;;;22.51;64.06;101664.91;7409965;19;1546;-58
2022/10/13 02:39:24;;;;;;;;;;;;;;;22.19;65.08;101668.59;7407853;19;1865;-59
2022/10/13 02:41:53;;;;;;;;;;;;;;;22.15;65.16;101675.25;7408858;19;1664;-59
2022/10/13 02:44:21;;;;;;;;;;;;;;;22.36;64.41;101661.75;7408917;19;1407;-59
2022/10/13 02:46:49;;;;;;;;;;;;;;;22.72;63.79;101663.97;7409538;19;1538;-59
2022/10/13 02:49:17;;;;;;;;;;;;;;;22.44;64.34;101655.66;7409035;19;1596;-59
2022/10/13 02:51:46;;;;;;;;;;;;;;;22.12;65.10;101651.25;7410276;19;1585;-59
2022/10/13 02:54:17;;;;;;;;;;;;;;;22.22;65.00;101662.94;7409187;19;1273;-58
2022/10/13 02:56:45;;;;;;;;;;;;;;;22.46;64.41;101669.00;7409550;19;1353;-59
2022/10/13 02:59:13;;;;;;;;;;;;;;;22.75;63.67;101661.03;7409192;19;1864;-59
2022/10/13 03:01:43;;;;;;;;;;;;;;;22.54;64.14;101664.66;7408491;19;1177;-60
2022/10/13 03:04:13;;;;;;;;;;;;;;;22.17;64.91;101653.56;7408587;19;1760;-60
2022/10/13 03:06:41;;;;;;;;;;;;;;;22.15;65.10;101651.00;7408322;19;1388;-59
2022/10/13 03:09:10;;;;;;;;;;;;;;;22.46;64.11;101644.75;7408956;19;1469;-59
2022/10/13 03:11:41;;;;;;;;;;;;;;;22.73;63.38;101661.16;7408645;19;1514;-59
2022/10/13 03:14:09;;;;;;;;;;;;;;;22.47;64.27;101659.94;7409913;19;1494;-60
2022/10/13 03:16:37;;;;;;;;;;;;;;;22.22;64.92;101662.94;7408927;19;1330;-59
2022/10/13 03:19:06;;;;;;;;;;;;;;;22.16;65.29;101643.75;7408340;19;1651;-59
2022/10/13 03:21:34;;;;;;;;;;;;;;;22.40;64.48;101654.22;7406492;19;1841;-59
2022/10/13 03:24:04;;;;;;;;;;;;;;;22.78;63.08;101641.84;7409013;19;1616;-59
2022/10/13 03:26:32;;;;;;;;;;;;;;;22.55;64.07;101647.47;7408412;19;1514;-59
2022/10/13 03:29:04;;;;;;;;;;;;;;;22.21;65.01;101663.91;7407407;19;1492;-59
2022/10/13 03:31:32;;;;;;;;;;;;;;;22.24;64.64;101658.31;7408083;19;1634;-59
2022/10/13 03:34:00;;;;;;;;;;;;;;;22.44;64.14;101666.44;7408213;19;1549;-59
2022/10/13 03:36:29;;;;;;;;;;;;;;;22.78;63.42;101666.13;7408650;19;1601;-59
2022/10/13 03:38:57;;;;;;;;;;;;;;;22.51;64.18;101677.56;7407358;19;1430;-59
2022/10/13 03:41:25;;;;;;;;;;;;;;;22.18;64.98;101664.22;7405187;19;1842;-59
2022/10/13 03:43:53;;;;;;;;;;;;;;;22.21;64.71;101681.94;7406835;19;1282;-59
2022/10/13 03:46:26;;;;;;;;;;;;;;;22.47;64.08;101676.13;7408835;19;1349;-59
2022/10/13 03:48:54;;;;;;;;;;;;;;;22.84;62.98;101663.75;7406971;19;1650;-59
2022/10/13 03:51:23;;;;;;;;;;;;;;;22.47;64.32;101676.97;7407116;19;1232;-59
2022/10/13 03:53:52;;;;;;;;;;;;;;;22.16;65.16;101668.88;7404098;19;1295;-59
2022/10/13 03:56:22;;;;;;;;;;;;;;;22.23;64.79;101671.88;7404824;19;1308;-59
2022/10/13 03:58:53;;;;;;;;;;;;;;;22.06;64.94;101678.72;7407913;19;1615;-59
2022/10/13 04:01:22;;;;;;;;;;;;;;;21.92;65.26;101681.78;7405754;19;1849;-59
2022/10/13 04:03:54;;;;;;;;;;;;;;;21.85;65.56;101670.69;7406214;19;1780;-59
2022/10/13 04:06:23;;;;;;;;;;;;;;;21.76;65.66;101658.84;7406870;19;1577;-59
2022/10/13 04:08:51;;;;;;;;;;;;;;;21.75;65.56;101676.00;7407029;19;1415;-59
2022/10/13 04:11:20;;;;;;;;;;;;;;;21.71;65.87;101669.19;7407366;19;1297;-59
2022/10/13 04:13:49;;;;;;;;;;;;;;;21.66;65.62;101668.72;7406947;19;1594;-59
2022/10/13 04:16:19;;;;;;;;;;;;;;;21.67;65.45;101674.97;7406763;19;1611;-59
2022/10/13 04:18:47;;;;;;;;;;;;;;;21.65;65.69;101667.88;7407051;19;1508;-60
2022/10/13 04:21:18;;;;;;;;;;;;;;;21.73;65.60;101669.06;7404788;19;1861;-59
2022/10/13 04:23:47;;;;;;;;;;;;;;;21.72;65.31;101660.09;7405894;19;1270;-63
2022/10/13 04:26:19;;;;;;;;;;;;;;;21.73;65.33;101660.97;7405811;19;1278;-60
2022/10/13 04:28:48;;;;;;;;;;;;;;;21.75;65.84;101665.25;7406715;19;1523;-62
2022/10/13 04:31:16;;;;;;;;;;;;;;;21.69;65.77;101673.84;7406267;19;1623;-67
2022/10/13 04:33:45;;;;;;;;;;;;;;;21.55;66.18;101664.25;7407409;19;1388;-64
2022/10/13 04:36:14;;;;;;;;;;;;;;;21.48;66.57;101675.66;7407638;19;1680;-68
2022/10/13 04:38:45;;;;;;;;;;;;;;;21.44;66.75;101683.97;7405655;19;1577;-67
2022/10/13 04:41:14;;;;;;;;;;;;;;;21.42;66.68;101675.16;7406796;19;1845;-65
2022/10/13 04:43:42;;;;;;;;;;;;;;;21.44;66.61;101678.59;7407031;19;1667;-65
2022/10/13 04:46:12;;;;;;;;;;;;;;;21.41;66.36;101675.31;7406717;19;1369;-66
2022/10/13 04:48:41;;;;;;;;;;;;;;;21.42;66.46;101677.84;7405630;19;1317;-64
2022/10/13 04:51:10;;;;;;;;;;;;;;;21.42;66.56;101660.84;7404127;19;1488;-61
2022/10/13 04:53:38;;;;;;;;;;;;;;;21.52;66.26;101666.34;7404989;19;1368;-60
2022/10/13 04:56:10;;;;;;;;;;;;;;;21.56;66.01;101681.25;7404669;19;1617;-62
2022/10/13 04:59:50;;;;;;;;;;;;;;;21.77;65.28;101671.34;7434546;19;1584;-36
2022/10/13 05:02:18;;;;;;;;;;;;;;;21.66;65.64;101682.16;7432425;19;1642;-36
2022/10/13 05:04:46;;;;;;;;;;;;;;;21.62;65.80;101686.94;7437605;19;1607;-36
2022/10/13 05:07:15;;;;;;;;;;;;;;;21.55;66.08;101691.16;7437516;19;1841;-36
2022/10/13 05:09:43;;;;;;;;;;;;;;;21.54;65.73;101680.53;7434569;19;1700;-36
2022/10/13 05:12:11;;;;;;;;;;;;;;;21.57;65.81;101693.72;7437328;19;1732;-36
2022/10/13 05:14:39;;;;;;;;;;;;;;;21.56;65.67;101681.25;7437546;19;1725;-36
2022/10/13 05:17:10;;;;;;;;;;;;;;;21.58;65.29;101685.50;7436727;19;1811;-36
2022/10/13 05:19:38;;;;;;;;;;;;;;;21.66;65.74;101687.53;7433095;19;1889;-36
2022/10/13 05:22:06;;;;;;;;;;;;;;;21.79;65.29;101677.44;7434987;19;1620;-36
2022/10/13 05:24:37;;;;;;;;;;;;;;;21.88;65.16;101696.47;7436136;19;1717;-35
2022/10/13 05:27:11;;;;;;;;;;;;;;;21.82;65.21;101687.94;7434338;19;1504;-36
2022/10/13 05:29:39;;;;;;;;;;;;;;;21.75;65.33;101705.63;7436212;19;1448;-36
2022/10/13 05:32:10;;;;;;;;;;;;;;;21.68;65.55;101676.66;7434375;19;1509;-36
2022/10/13 05:34:38;;;;;;;;;;;;;;;21.70;65.40;101691.69;7433399;19;1599;-36
2022/10/13 05:37:07;;;;;;;;;;;;;;;21.69;65.94;101697.22;7436587;19;1529;-36
2022/10/13 05:39:35;;;;;;;;;;;;;;;21.80;65.60;101697.13;7433240;19;1841;-36
2022/10/13 05:42:04;;;;;;;;;;;;;;;21.85;65.56;101695.75;7436256;19;1847;-36
2022/10/13 05:44:40;;;;;;;;;;;;;;;21.95;65.50;101694.97;7433665;19;1660;-36
2022/10/13 05:47:15;;;;;;;;;;;;;;;21.98;65.36;101702.78;7434710;19;1601;-35
2022/10/13 05:49:46;;;;;;;;;;;;;;;22.00;65.19;101708.88;7434798;19;1853;-36
2022/10/13 05:52:23;;;;;;;;;;;;;;;22.05;64.89;101714.75;7436930;19;1593;-35
2022/10/13 05:54:54;;;;;;;;;;;;;;;22.00;65.43;101707.06;7434673;19;1650;-35
2022/10/13 05:57:26;;;;;;;;;;;;;;;22.02;65.40;101712.31;7434798;19;1749;-36
2022/10/13 06:00:05;;;;;;;;;;;;;;;22.05;67.27;101709.34;7431066;19;1851;-41
2022/10/13 06:05:32;;;;;;;;;;;;;;;22.02;66.98;101715.00;7431308;19;2165;-42
2022/10/13 06:08:21;;;;;;;;;;;;;;;22.03;71.88;101689.78;7432731;19;1590;-42
2022/10/13 06:10:53;;;;;;;;;;;;;;;22.00;68.26;101706.19;7408542;19;1617;-41
2022/10/13 06:13:23;;;;;;;;;;;;;;;21.97;66.46;101710.00;7405168;19;1815;-41
2022/10/13 06:15:51;;;;;;;;;;;;;;;21.93;66.19;101710.41;7403870;19;2200;-42
2022/10/13 06:18:26;;;;;;;;;;;;;;;21.95;66.27;101703.06;7405272;19;1969;-42
2022/10/13 06:20:54;;;;;;;;;;;;;;;21.91;69.21;101701.63;7406022;19;1835;-41
2022/10/13 06:23:44;;;;;;;;;;;;;;;21.82;66.17;101696.00;7403869;19;1527;-41
2022/10/13 06:26:12;;;;;;;;;;;;;;;21.82;66.77;101695.16;7406522;19;1867;-41
2022/10/13 06:28:40;;;;;;;;;;;;;;;21.91;66.05;101702.47;7405700;19;1656;-41
2022/10/13 06:31:09;;;;;;;;;;;;;;;21.93;67.18;101688.88;7406653;19;1904;-41
2022/10/13 06:33:40;;;;;;;;;;;;;;;21.93;66.20;101680.81;7406324;19;1525;-41
2022/10/13 06:36:08;;;;;;;;;;;;;;;21.95;67.05;101687.75;7405778;19;2009;-41
2022/10/13 06:38:41;;;;;;;;;;;;;;;22.05;66.95;101693.19;7404674;19;1857;-41
2022/10/13 06:41:13;;;;;;;;;;;;;;;21.95;67.00;101695.81;7405970;19;1579;-41
2022/10/13 06:46:24;;;;;;;;;;;;;;;21.90;70.37;101683.75;7402231;19;2220;-41
2022/10/13 06:49:10;;;;;;;;;;;;;;;21.88;70.07;101686.56;7405155;19;1568;-41
2022/10/13 06:51:42;;;;;;;;;;;;;;;21.85;68.36;101678.75;7406518;19;2420;-41
2022/10/13 06:54:13;;;;;;;;;;;;;;;21.87;69.35;101695.63;7405125;19;1493;-41
2022/10/13 06:56:48;;;;;;;;;;;;;;;21.89;69.20;101687.44;7403766;19;1762;-41
2022/10/13 06:59:26;;;;;;;;;;;;;;;21.97;67.02;101683.09;7402729;19;1858;-40
2022/10/13 07:01:55;;;;;;;;;;;;;;;22.01;66.75;101698.00;7403619;19;1650;-41
2022/10/13 07:04:24;;;;;;;;;;;;;;;22.05;67.02;101696.72;7404617;19;1622;-41
2022/10/13 07:06:55;;;;;;;;;;;;;;;22.06;67.29;101689.50;7404133;19;1583;-41
2022/10/13 07:09:23;;;;;;;;;;;;;;;22.08;68.29;101697.44;7404660;19;1484;-41
2022/10/13 07:11:51;;;;;;;;;;;;;;;22.07;67.61;101688.53;7403116;19;1521;-41
2022/10/13 07:14:20;;;;;;;;;;;;;;;22.07;69.05;101685.84;7404571;19;1901;-40
2022/10/13 07:16:49;;;;;;;;;;;;;;;22.04;68.14;101692.34;7404603;19;1524;-41
2022/10/13 07:19:17;;;;;;;;;;;;;;;22.17;67.78;101685.88;7402712;19;1869;-40
2022/10/13 07:21:45;;;;;;;;;;;;;;;22.18;68.33;101693.84;7401778;19;1591;-40
2022/10/13 07:26:56;;;;;;;;;;;;;;;22.14;68.28;101703.16;7398138;19;2528;-40
2022/10/13 07:29:25;;;;;;;;;;;;;;;22.02;68.53;101698.84;7404618;19;1304;-40
2022/10/13 07:31:53;;;;;;;;;;;;;;;21.97;68.17;101676.84;7403502;19;1913;-40
2022/10/13 07:34:21;;;;;;;;;;;;;;;22.00;67.65;101681.97;7402957;19;1585;-40
2022/10/13 07:36:49;;;;;;;;;;;;;;;21.99;67.05;101672.19;7402911;19;2009;-40
2022/10/13 07:39:20;;;;;;;;;;;;;;;21.98;67.27;101682.09;7401877;19;1863;-40
2022/10/13 07:41:48;;;;;;;;;;;;;;;22.07;67.61;101677.75;7397612;19;1989;-40
2022/10/13 07:44:17;;;;;;;;;;;;;;;22.05;67.43;101688.66;7398383;19;1693;-40
2022/10/13 07:46:45;;;;;;;;;;;;;;;22.03;67.53;101698.72;7403240;19;1577;-40
2022/10/13 07:49:14;;;;;;;;;;;;;;;22.00;67.84;101679.25;7399084;19;1711;-40
2022/10/13 07:51:42;;;;;;;;;;;;;;;22.00;67.82;101685.53;7402147;19;1460;-40
2022/10/13 07:54:11;;;;;;;;;;;;;;;21.98;67.79;101686.63;7403121;19;1822;-40
2022/10/13 07:56:41;;;;;;;;;;;;;;;21.98;67.92;101681.22;7403433;19;1652;-40
2022/10/13 07:59:10;;;;;;;;;;;;;;;21.95;67.59;101668.06;7401619;19;1837;-40
2022/10/13 08:01:39;;;;;;;;;;;;;;;21.99;67.47;101685.66;7402193;19;1513;-40
2022/10/13 08:04:08;;;;;;;;;;;;;;;21.97;67.39;101679.53;7401766;19;1534;-40
2022/10/13 08:06:36;;;;;;;;;;;;;;;21.97;67.73;101680.38;7402593;19;1652;-40
2022/10/13 08:09:05;;;;;;;;;;;;;;;21.99;67.93;101664.09;7401802;19;1536;-40
2022/10/13 08:11:33;;;;;;;;;;;;;;;21.97;67.79;101679.53;7402328;19;1676;-40
2022/10/13 08:14:04;;;;;;;;;;;;;;;22.02;67.82;101677.28;7402148;19;1387;-40
2022/10/13 08:16:32;;;;;;;;;;;;;;;21.99;68.25;101688.34;7402338;19;1734;-40
2022/10/13 08:19:00;;;;;;;;;;;;;;;21.99;71.87;101680.25;7401532;19;1848;-40
2022/10/13 08:21:29;;;;;;;;;;;;;;;21.87;69.79;101673.25;7402780;19;2070;-40
2022/10/13 08:23:57;;;;;;;;;;;;;;;21.87;65.86;101673.25;7402635;19;1648;-40
2022/10/13 08:26:27;;;;;;;;;;;;;;;21.81;64.08;101680.00;7403496;19;1767;-40
2022/10/13 08:28:55;;;;;;;;;;;;;;;21.80;64.77;101678.28;7401802;19;1663;-39
2022/10/13 08:31:26;;;;;;;;;;;;;;;21.80;67.82;101662.97;7399987;19;1744;-39
2022/10/13 08:33:54;;;;;;;;;;;;;;;21.78;62.98;101654.19;7400847;19;1753;-40
2022/10/13 08:36:23;;;;;;;;;;;;;;;21.82;63.88;101668.25;7402123;19;1686;-39
2022/10/13 08:38:52;;;;;;;;;;;;;;;21.78;62.55;101669.50;7401479;19;1934;-39
2022/10/13 08:41:22;;;;;;;;;;;;;;;21.85;63.06;101679.59;7401382;19;1666;-39
2022/10/13 08:43:51;;;;;;;;;;;;;;;21.84;64.99;101659.06;7401503;19;1701;-39
2022/10/13 08:46:23;;;;;;;;;;;;;;;21.81;63.69;101664.72;7401450;19;1653;-40
2022/10/13 08:48:54;;;;;;;;;;;;;;;21.81;62.85;101667.41;7402640;19;1686;-40
2022/10/13 08:51:22;;;;;;;;;;;;;;;21.82;61.50;101670.94;7402738;19;1024;-39
2022/10/13 08:53:51;;;;;;;;;;;;;;;21.82;63.25;101662.84;7398652;19;1865;-39
2022/10/13 08:56:20;;;;;;;;;;;;;;;21.81;63.22;101669.25;7401719;19;1684;-39
2022/10/13 08:58:50;;;;;;;;;;;;;;;21.82;61.73;101670.94;7399809;19;1857;-39
2022/10/13 09:01:19;;;;;;;;;;;;;;;21.82;63.67;101666.41;7400798;19;1759;-39
2022/10/13 09:03:55;;;;;;;;;;;;;;;21.74;62.17;101660.81;7402143;19;1666;-39
2022/10/13 09:06:27;;;;;;;;;;;;;;;21.72;58.12;101657.41;7401380;19;1927;-39
2022/10/13 09:08:58;;;;;;;;;;;;;;;21.72;59.76;101662.78;7399994;19;1693;-39
2022/10/13 09:11:30;;;;;;;;;;;;;;;21.72;55.52;101667.34;7401990;19;1659;-39
2022/10/13 09:14:00;;;;;;;;;;;;;;;21.70;59.80;101659.38;7401018;19;1794;-39
2022/10/13 09:16:29;;;;;;;;;;;;;;;21.72;61.77;101668.19;7400417;19;1764;-39
2022/10/13 09:19:13;;;;;;;;;;;;;;;21.73;59.81;101658.28;7400860;19;1853;-39
2022/10/13 09:21:42;;;;;;;;;;;;;;;21.74;59.35;101663.50;7401256;19;1987;-38
2022/10/13 09:24:15;;;;;;;;;;;;;;;21.73;53.76;101659.13;7395312;19;1748;-46
2022/10/13 09:26:43;;;;;;;;;;;;;;;21.71;54.17;101658.41;7399985;19;1416;-46
2022/10/13 09:29:12;;;;;;;;;;;;;;;21.73;54.26;101656.44;7400726;19;1671;-45
2022/10/13 09:31:40;;;;;;;;;;;;;;;21.78;54.43;101666.81;7400345;19;1291;-45
2022/10/13 09:34:14;;;;;;;;;;;;;;;21.80;54.83;101654.91;7399318;19;1470;-45
2022/10/13 09:36:56;;;;;;;;;;;;;;;21.87;55.51;101644.47;7400911;19;1360;-44
2022/10/13 09:39:25;;;;;;;;;;;;;;;21.90;55.62;101651.44;7398755;19;1903;-45
2022/10/13 09:41:53;;;;;;;;;;;;;;;21.89;56.24;101655.13;7399435;19;1691;-45
2022/10/13 09:44:29;;;;;;;;;;;;;;;21.87;56.55;101651.72;7399610;19;1510;-46
2022/10/13 09:46:59;;;;;;;;;;;;;;;21.92;57.24;101653.00;7407489;19;1413;-45
2022/10/13 09:49:33;;;;;;;;;;;;;;;21.91;58.77;101650.47;7407492;19;1546;-45
2022/10/13 09:52:02;;;;;;;;;;;;;;;21.91;59.43;101631.59;7409265;19;1253;-45
2022/10/13 09:54:37;;;;;;;;;;;;;;;21.91;58.58;101645.91;7407179;19;1528;-45
2022/10/13 09:57:08;;;;;;;;;;;;;;;21.91;60.60;101647.75;7406946;19;1928;-45
2022/10/13 09:59:38;;;;;;;;;;;;;;;21.93;61.46;101635.88;7403790;19;1841;-46
2022/10/13 10:02:20;;;;;;;;;;;;;;;21.90;59.39;101621.81;7403574;19;1501;-45
2022/10/13 10:04:52;;;;;;;;;;;;;;;21.84;60.91;101620.50;7407342;19;1459;-45
2022/10/13 10:07:23;;;;;;;;;;;;;;;21.88;60.75;101627.31;7407983;19;1252;-45
2022/10/13 10:09:53;;;;;;;;;;;;;;;21.97;60.25;101631.06;7405026;19;1538;-45
2022/10/13 10:12:23;;;;;;;;;;;;;;;21.93;60.42;101626.94;7406195;19;1476;-44
2022/10/13 10:14:51;;;;;;;;;;;;;;;21.81;58.29;101627.00;7406111;19;1691;-44
2022/10/13 10:17:25;;;;;;;;;;;;;;;21.73;57.28;101613.38;7405767;19;1837;-45
2022/10/13 10:20:02;;;;;;;;;;;;;;;21.65;57.27;101610.50;7405161;19;1857;-44
2022/10/13 10:22:36;;;;;;;;;;;;;;;21.66;54.39;101614.88;7406696;19;1459;-44
2022/10/13 10:25:11;;;;;;;;;;;;;;;21.65;53.30;101616.72;7405126;19;1806;-44
2022/10/13 10:27:41;;;;;;;;;;;;;;;21.60;54.76;101608.16;7405205;19;1738;-44
2022/10/13 10:30:29;;;;;;;;;;;;;;;21.64;49.90;101603.38;7405474;19;1577;-44
2022/10/13 10:33:04;;;;;;;;;;;;;;;21.65;53.42;101619.41;7406117;19;1691;-44
2022/10/13 10:35:47;;;;;;;;;;;;;;;21.63;52.88;101613.31;7404974;19;1836;-44
2022/10/13 10:38:24;;;;;;;;;;;;;;;21.61;51.66;101587.53;7406176;19;1632;-45
2022/10/13 10:40:58;;;;;;;;;;;;;;;21.61;48.75;101598.28;7403895;19;1849;-46
2022/10/13 10:43:41;;;;;;;;;;;;;;;21.57;50.30;101578.00;7406139;19;1472;-42
2022/10/13 10:46:28;;;;;;;;;;;;;;;;;;;;;
2022/10/13 10:49:00;;;;;;;;;;;;;;;21.54;51.92;101573.72;7403417;19;1351;-43
2022/10/13 10:51:39;;;;;;;;;;;;;;;21.52;52.07;101580.22;7405751;19;1728;-43
2022/10/13 10:54:18;;;;;;;;;;;;;;;21.47;51.56;101560.91;7403953;19;1810;-42
2022/10/13 10:57:02;;;;;;;;;;;;;;;21.42;50.48;101572.06;7402856;19;1382;-42
2022/10/13 10:59:58;;;;;;;;;;;;;;;21.49;49.13;101577.78;7401931;19;1849;-42
2022/10/13 15:19:20;;;;;;;;;;;;;;;22.05;62.78;101407.69;7393474;19;1866;-65
2022/10/13 15:21:50;;;;;;;;;;;;;;;21.93;63.27;101406.13;7403428;19;1852;-65
2022/10/13 15:24:19;;;;;;;;;;;;;;;21.91;63.39;101419.72;7402596;19;1652;-65
2022/10/13 15:26:48;;;;;;;;;;;;;;;21.83;63.61;101425.78;7404090;19;1702;-66
2022/10/13 15:29:17;;;;;;;;;;;;;;;21.74;63.79;101423.06;7401878;19;1616;-74
2022/10/13 15:31:45;;;;;;;;;;;;;;;21.73;63.68;101424.09;7405423;19;1512;-73
2022/10/13 15:34:14;;;;;;;;;;;;;;;21.66;63.88;101421.06;7404289;19;1756;-73
2022/10/13 15:36:45;;;;;;;;;;;;;;;21.60;63.88;101425.16;7406278;19;1625;-74
2022/10/13 15:39:13;;;;;;;;;;;;;;;21.65;64.32;101431.00;7405003;19;1555;-72
2022/10/13 15:41:41;;;;;;;;;;;;;;;21.64;64.15;101425.72;7403748;19;1857;-74
2022/10/13 15:44:10;;;;;;;;;;;;;;;21.60;63.89;101421.63;7401943;19;1440;-74
2022/10/13 15:46:39;;;;;;;;;;;;;;;21.49;62.19;101417.19;7403769;19;1632;-73
2022/10/13 15:49:07;;;;;;;;;;;;;;;21.58;62.25;101416.34;7405165;19;1501;-74
2022/10/13 15:51:35;;;;;;;;;;;;;;;21.75;61.73;101449.88;7402619;19;1518;-72
2022/10/13 15:54:07;;;;;;;;;;;;;;;21.71;62.03;101416.13;7403832;19;1834;-72
2022/10/13 15:56:35;;;;;;;;;;;;;;;21.70;61.75;101411.72;7402022;19;1640;-77
2022/10/13 15:59:05;;;;;;;;;;;;;;;21.87;61.63;101420.16;7402118;19;1505;-73
2022/10/13 16:01:33;;;;;;;;;;;;;;;21.98;62.91;101426.22;7400599;19;1850;-71
2022/10/13 16:04:01;;;;;;;;;;;;;;;22.00;62.37;101420.72;7403861;19;1604;-77
2022/10/13 16:06:30;;;;;;;;;;;;;;;21.83;61.26;101428.50;7398014;19;1682;-73
2022/10/13 16:08:59;;;;;;;;;;;;;;;21.84;60.34;101424.81;7401698;19;1438;-74
2022/10/13 16:11:30;;;;;;;;;;;;;;;21.76;61.15;101435.41;7402366;19;1550;-74
2022/10/13 16:13:58;;;;;;;;;;;;;;;21.68;61.73;101432.53;7404624;19;1597;-71
2022/10/13 16:16:28;;;;;;;;;;;;;;;21.61;62.50;101416.09;7403782;19;1667;-76
2022/10/13 16:18:57;;;;;;;;;;;;;;;21.84;61.92;101422.13;7402262;19;1623;-71
2022/10/13 16:21:27;;;;;;;;;;;;;;;21.92;61.13;101444.81;7401788;19;1852;-76
2022/10/13 16:23:55;;;;;;;;;;;;;;;21.77;61.50;101431.72;7401020;19;1609;-68
2022/10/13 16:26:24;;;;;;;;;;;;;;;21.91;62.08;101445.81;7400560;19;1541;-71
2022/10/13 16:28:58;;;;;;;;;;;;;;;21.89;60.80;101434.31;7401785;19;1549;-74
2022/10/13 16:31:26;;;;;;;;;;;;;;;21.80;62.11;101442.22;7401723;19;1616;-75
2022/10/13 16:33:55;;;;;;;;;;;;;;;21.83;62.36;101431.19;7403760;19;1628;-69
2022/10/13 16:36:25;;;;;;;;;;;;;;;21.80;62.62;101430.59;7400545;19;1324;-77
2022/10/13 16:38:55;;;;;;;;;;;;;;;21.74;63.77;101436.53;7399657;19;1532;-66
2022/10/13 16:41:23;;;;;;;;;;;;;;;21.61;64.56;101452.94;7398508;19;1866;-66
2022/10/13 16:43:52;;;;;;;;;;;;;;;21.56;64.67;101434.50;7403012;19;1645;-66
2022/10/13 16:46:24;;;;;;;;;;;;;;;21.58;64.00;101431.66;7401040;19;1409;-66
2022/10/13 16:48:52;;;;;;;;;;;;;;;21.58;63.63;101415.53;7400993;19;1642;-68
2022/10/13 16:51:22;;;;;;;;;;;;;;;21.59;63.28;101430.69;7403326;19;1458;-66
2022/10/13 16:53:50;;;;;;;;;;;;;;;21.64;63.09;101425.72;7402794;19;1345;-66
2022/10/13 16:56:21;;;;;;;;;;;;;;;21.72;62.33;101433.97;7399997;19;1320;-65
2022/10/13 16:58:49;;;;;;;;;;;;;;;21.74;61.76;101429.31;7395416;19;1225;-66
2022/10/13 17:01:18;;;;;;;;;;;;;;;21.79;61.04;101429.75;7399227;19;1845;-66
2022/10/13 17:03:49;;;;;;;;;;;;;;;21.75;62.44;101435.56;7399561;19;1545;-66
2022/10/13 17:06:18;;;;;;;;;;;;;;;21.74;60.30;101421.22;7396052;19;1485;-65
2022/10/13 17:08:47;;;;;;;;;;;;;;;21.74;60.85;101421.22;7398410;19;1378;-66
2022/10/13 17:11:17;;;;;;;;;;;;;;;21.80;61.21;101428.75;7398234;19;1420;-70
2022/10/13 17:13:45;;;;;;;;;;;;;;;22.02;60.78;101419.59;7398452;19;1447;-71
2022/10/13 17:16:14;;;;;;;;;;;;;;;21.99;61.76;101402.88;7403109;19;1382;-71
2022/10/13 17:18:42;;;;;;;;;;;;;;;21.98;62.78;101412.78;7402891;19;1083;-69
2022/10/13 17:21:14;;;;;;;;;;;;;;;21.92;61.45;101423.25;7395719;19;1851;-66
2022/10/13 17:23:43;;;;;;;;;;;;;;;21.94;61.75;101418.59;7395712;19;1694;-68
2022/10/13 17:26:12;;;;;;;;;;;;;;;21.87;61.11;101429.06;7403187;19;1374;-69
2022/10/13 17:28:41;;;;;;;;;;;;;;;21.75;59.23;101417.56;7403408;19;1179;-68
2022/10/13 17:31:10;;;;;;;;;;;;;;;21.80;59.77;101415.28;7403487;19;1679;-69
2022/10/13 17:33:39;;;;;;;;;;;;;;;21.77;61.58;101426.34;7403579;19;1612;-69
2022/10/13 17:36:09;;;;;;;;;;;;;;;21.90;61.49;101419.84;7401431;19;1690;-69
2022/10/13 17:38:40;;;;;;;;;;;;;;;21.82;61.69;101399.00;7403577;19;1553;-68
2022/10/13 17:41:09;;;;;;;;;;;;;;;21.79;61.34;101412.75;7402414;19;1834;-69